Time;durP1;ratioP1;P1;durP2;ratioP2;P2;SDS_P1;SDS_P2;PMS_P1;PMS_P2;Temp;Humidity;BMP_temperature;BMP_pressure;BME280_temperature;BME280_humidity;BME280_pressure;Samples;Min_cycle;Max_cycle;Signal;HPM_P1;HPM_P2
2022/09/30 09:51:46;;;;;;;7.77;6.30;;;;;;;;;;4940776;29;20240;-43
2022/09/30 09:54:13;;;;;;;7.73;6.30;;;;;;;;;;4953070;29;20243;-47
2022/09/30 09:56:40;;;;;;;7.40;5.30;;;;;;;;;;4953140;29;20212;-44
2022/09/30 09:59:09;;;;;;;6.63;5.80;;;;;;;;;;4955476;28;20233;-45
2022/09/30 10:01:38;;;;;;;5.73;5.00;;;;;;;;;;4934278;29;20222;-43
2022/09/30 10:04:10;;;;;;;9.93;5.30;;;;;;;;;;4941201;29;20292;-44
2022/09/30 10:07:01;;;;;;;10.17;5.17;;;;;;;;;;4943066;29;20210;-44
2022/09/30 10:09:45;;;;;;;7.00;5.63;;;;;;;;;;4932029;28;20221;-43
2022/09/30 10:12:26;;;;;;;8.50;6.37;;;;;;;;;;4948636;29;20297;-46
2022/09/30 10:14:57;;;;;;;7.77;6.70;;;;;;;;;;4953217;29;20190;-43
2022/09/30 10:17:28;;;;;;;7.73;6.70;;;;;;;;;;4948589;29;20212;-44
2022/09/30 10:19:56;;;;;;;9.37;6.63;;;;;;;;;;4950401;28;20243;-44
2022/09/30 10:22:27;;;;;;;10.07;6.47;;;;;;;;;;4949763;29;20205;-46
2022/09/30 10:25:09;;;;;;;9.53;6.67;;;;;;;;;;4948708;28;20195;-45
2022/09/30 10:27:36;;;;;;;8.00;6.10;;;;;;;;;;4953439;28;20219;-43
2022/09/30 10:30:03;;;;;;;6.90;6.20;;;;;;;;;;4951900;28;20221;-44
2022/09/30 10:32:30;;;;;;;7.00;4.90;;;;;;;;;;4945484;29;20216;-43
2022/09/30 10:35:03;;;;;;;8.07;5.73;;;;;;;;;;4943398;29;20212;-45
2022/09/30 10:37:30;;;;;;;4.17;3.77;;;;;;;;;;4951720;29;20544;-47
2022/09/30 10:40:00;;;;;;;6.13;4.03;;;;;;;;;;4952252;28;20243;-41
2022/09/30 10:42:30;;;;;;;5.87;4.23;;;;;;;;;;4942991;29;20220;-45
2022/09/30 10:44:58;;;;;;;5.40;4.00;;;;;;;;;;4939440;28;20604;-42
2022/09/30 10:47:26;;;;;;;4.70;3.23;;;;;;;;;;4941866;29;20215;-43
2022/09/30 10:49:56;;;;;;;3.87;2.93;;;;;;;;;;4946916;28;20248;-43
2022/09/30 10:52:24;;;;;;;4.77;2.73;;;;;;;;;;4951783;29;20215;-45
2022/09/30 10:54:53;;;;;;;4.03;3.30;;;;;;;;;;4945141;29;20217;-44
2022/09/30 10:57:22;;;;;;;3.03;2.67;;;;;;;;;;4942889;29;20209;-45
2022/09/30 10:59:53;;;;;;;2.77;2.40;;;;;;;;;;4953412;28;20272;-41
2022/09/30 11:02:24;;;;;;;3.03;2.70;;;;;;;;;;4945306;29;20209;-45
2022/09/30 11:04:55;;;;;;;4.90;2.03;;;;;;;;;;4942471;29;20288;-45
2022/09/30 11:07:26;;;;;;;3.37;2.53;;;;;;;;;;4946440;29;20223;-45
2022/09/30 11:09:57;;;;;;;4.30;2.90;;;;;;;;;;4951486;28;20221;-39
2022/09/30 11:12:30;;;;;;;3.43;2.67;;;;;;;;;;4942237;28;20215;-42
2022/09/30 11:15:03;;;;;;;2.40;2.20;;;;;;;;;;4951458;29;20276;-44
2022/09/30 11:17:34;;;;;;;2.90;2.70;;;;;;;;;;4940966;28;20245;-44
2022/09/30 11:20:10;;;;;;;3.43;1.70;;;;;;;;;;4950011;28;20251;-44
2022/09/30 11:22:42;;;;;;;1.67;1.57;;;;;;;;;;4943077;29;20213;-46
2022/09/30 11:25:13;;;;;;;1.87;1.53;;;;;;;;;;4936470;29;20220;-44
2022/09/30 11:27:45;;;;;;;1.57;1.20;;;;;;;;;;4945034;29;20209;-41
2022/09/30 11:30:17;;;;;;;1.30;1.17;;;;;;;;;;4955561;28;20236;-45
2022/09/30 11:32:50;;;;;;;1.67;1.57;;;;;;;;;;4951106;29;20216;-42
2022/09/30 11:35:24;;;;;;;4.57;1.97;;;;;;;;;;4954482;29;20264;-43
2022/09/30 11:37:59;;;;;;;1.67;1.43;;;;;;;;;;4954813;29;20209;-45
2022/09/30 11:40:35;;;;;;;2.60;1.70;;;;;;;;;;4947714;29;20561;-44
2022/09/30 11:43:08;;;;;;;2.23;1.10;;;;;;;;;;4940131;29;20308;-45
2022/09/30 11:45:41;;;;;;;2.00;1.50;;;;;;;;;;4943125;29;20211;-46
2022/09/30 11:48:17;;;;;;;1.53;1.10;;;;;;;;;;4940730;29;20214;-46
2022/09/30 11:50:49;;;;;;;7.23;1.90;;;;;;;;;;4946094;28;20239;-43
2022/09/30 11:53:23;;;;;;;1.73;1.50;;;;;;;;;;4949581;29;20216;-45
2022/09/30 11:56:08;;;;;;;1.40;1.30;;;;;;;;;;4942577;28;20284;-44
2022/09/30 11:58:39;;;;;;;2.83;1.10;;;;;;;;;;4950850;29;20275;-44
2022/09/30 12:01:12;;;;;;;2.63;1.63;;;;;;;;;;4951105;28;20240;-46
2022/09/30 12:03:42;;;;;;;2.87;1.70;;;;;;;;;;4950896;29;20221;-43
2022/09/30 12:06:12;;;;;;;2.93;1.40;;;;;;;;;;4952438;29;20206;-44
2022/09/30 12:08:43;;;;;;;3.47;1.50;;;;;;;;;;4953913;29;20210;-46
2022/09/30 12:11:12;;;;;;;1.73;1.00;;;;;;;;;;4947340;28;20226;-44
2022/09/30 12:13:42;;;;;;;2.70;1.23;;;;;;;;;;4950206;29;20205;-46
2022/09/30 12:16:13;;;;;;;1.67;1.30;;;;;;;;;;4950809;29;20201;-46
2022/09/30 12:18:42;;;;;;;1.43;1.33;;;;;;;;;;4945346;29;20298;-46
2022/09/30 12:21:13;;;;;;;2.13;1.10;;;;;;;;;;4951630;28;20229;-43
2022/09/30 12:23:42;;;;;;;2.10;1.00;;;;;;;;;;4954794;29;20201;-42
2022/09/30 12:26:12;;;;;;;1.07;1.07;;;;;;;;;;4949890;29;20289;-44
2022/09/30 12:31:46;;;;;;;1.40;1.30;;;;;;;;;;4949878;28;20233;-45
2022/09/30 12:34:20;;;;;;;1.20;1.03;;;;;;;;;;4952452;29;20209;-46
2022/09/30 12:36:56;;;;;;;1.87;1.40;;;;;;;;;;4953893;29;20212;-44
2022/09/30 12:39:41;;;;;;;1.90;1.13;;;;;;;;;;4950315;28;20206;-46
2022/09/30 12:42:19;;;;;;;1.20;1.10;;;;;;;;;;4953570;29;20209;-45
2022/09/30 12:45:01;;;;;;;1.23;1.07;;;;;;;;;;4954658;29;20201;-46
2022/09/30 12:47:33;;;;;;;1.50;1.20;;;;;;;;;;4947922;28;20213;-43
2022/09/30 12:50:01;;;;;;;1.20;1.10;;;;;;;;;;4949490;28;20340;-46
2022/09/30 12:52:32;;;;;;;1.00;0.97;;;;;;;;;;4954506;29;20203;-45
2022/09/30 12:55:01;;;;;;;2.47;1.00;;;;;;;;;;4949970;29;20213;-45
2022/09/30 12:57:30;;;;;;;2.00;0.80;;;;;;;;;;4946402;29;20217;-44
2022/09/30 12:59:58;;;;;;;1.53;0.97;;;;;;;;;;4953225;28;20225;-42
2022/09/30 13:07:59;;;;;;;1.90;0.90;;;;;;;;;;4998100;23;20268;-33
2022/09/30 13:10:27;;;;;;;1.27;0.97;;;;;;;;;;4998595;28;20266;-32
2022/09/30 13:13:23;;;;;;;1.60;0.90;;;;;;;;;;5013895;28;20528;-33
2022/09/30 13:15:50;;;;;;;0.73;0.73;;;;;;;;;;4989698;28;20202;-34
2022/09/30 13:18:36;;;;;;;2.30;0.90;;;;;;;;;;4991120;28;20219;-34
2022/09/30 13:21:17;;;;;;;1.07;0.97;;;;;;;;;;4995081;28;20318;-34
2022/09/30 13:23:47;;;;;;;1.00;0.90;;;;;;;;;;5011981;28;20195;-34
2022/09/30 13:26:30;;;;;;;0.80;0.80;;;;;;;;;;4991647;28;20200;-36
2022/09/30 13:29:21;;;;;;;1.10;0.70;;;;;;;;;;4983020;28;20235;-32
2022/09/30 13:32:04;;;;;;;2.17;0.80;;;;;;;;;;4996597;28;20204;-33
2022/09/30 13:34:32;;;;;;;2.30;0.77;;;;;;;;;;4995778;28;20218;-32
2022/09/30 13:37:00;;;;;;;0.50;0.50;;;;;;;;;;4992083;28;20233;-32
2022/09/30 13:39:30;;;;;;;1.97;1.00;;;;;;;;;;4991172;28;20235;-34
2022/09/30 13:42:02;;;;;;;1.37;1.00;;;;;;;;;;4984153;28;20287;-32
2022/09/30 13:44:33;;;;;;;1.00;0.80;;;;;;;;;;5000178;28;20197;-36
2022/09/30 13:47:07;;;;;;;1.33;0.90;;;;;;;;;;4984439;28;20210;-36
2022/09/30 13:49:39;;;;;;;0.80;0.80;;;;;;;;;;4983195;28;20239;-34
2022/09/30 13:52:07;;;;;;;2.57;1.10;;;;;;;;;;4980168;28;20217;-35
2022/09/30 13:54:39;;;;;;;12.43;1.17;;;;;;;;;;4986968;28;20208;-35
2022/09/30 13:57:07;;;;;;;0.97;0.80;;;;;;;;;;4988845;28;20199;-35
2022/09/30 13:59:52;;;;;;;2.20;1.10;;;;;;;;;;4981560;28;20230;-36
2022/09/30 14:02:43;;;;;;;1.20;0.80;;;;;;;;;;4981004;28;20215;-35
2022/09/30 14:05:19;;;;;;;1.30;0.90;;;;;;;;;;4970895;28;20210;-31
2022/09/30 14:07:51;;;;;;;1.33;1.10;;;;;;;;;;4982518;28;20214;-33
2022/09/30 14:10:27;;;;;;;2.93;1.07;;;;;;;;;;4981402;28;20311;-37
2022/09/30 14:13:02;;;;;;;1.90;0.90;;;;;;;;;;4984065;28;20221;-31
2022/09/30 14:15:41;;;;;;;1.43;1.10;;;;;;;;;;4982112;28;20207;-34
2022/09/30 14:18:25;;;;;;;1.40;0.80;;;;;;;;;;4984613;28;20226;-35
2022/09/30 14:21:08;;;;;;;1.10;1.00;;;;;;;;;;4982317;28;20224;-34
2022/09/30 14:23:36;;;;;;;1.80;1.20;;;;;;;;;;4972350;28;20292;-33
2022/09/30 14:26:11;;;;;;;3.13;1.10;;;;;;;;;;4981485;28;20207;-32
2022/09/30 14:28:40;;;;;;;1.17;0.90;;;;;;;;;;4988015;28;20298;-36
2022/09/30 14:31:13;;;;;;;1.77;0.90;;;;;;;;;;4982324;28;20654;-35
2022/09/30 14:33:41;;;;;;;0.80;0.80;;;;;;;;;;4985606;28;20212;-33
2022/09/30 14:36:13;;;;;;;0.90;0.90;;;;;;;;;;4988288;28;20288;-33
2022/09/30 14:38:43;;;;;;;1.30;1.10;;;;;;;;;;4989037;28;20212;-35
2022/09/30 14:41:16;;;;;;;3.70;0.87;;;;;;;;;;4987535;28;20230;-37
2022/09/30 14:43:45;;;;;;;2.40;1.20;;;;;;;;;;4980874;28;20196;-34
2022/09/30 14:48:41;;;;;;;1.13;0.87;;;;;;;;;;4939043;29;20248;-31
2022/09/30 14:51:10;;;;;;;1.80;1.17;;;;;;;;;;4961770;28;20264;-32
2022/09/30 14:53:38;;;;;;;0.67;0.67;;;;;;;;;;4953827;28;20198;-31
2022/09/30 14:56:19;;;;;;;2.43;0.93;;;;;;;;;;4941041;28;20218;-30
2022/09/30 14:58:51;;;;;;;2.57;0.80;;;;;;;;;;4943739;28;20205;-33
2022/09/30 15:01:21;;;;;;;1.50;1.00;;;;;;;;;;4942017;28;20240;-33
2022/09/30 15:03:54;;;;;;;1.97;0.87;;;;;;;;;;4947363;28;20210;-31
2022/09/30 15:06:23;;;;;;;1.07;0.90;;;;;;;;;;4951800;28;20242;-32
2022/09/30 15:08:51;;;;;;;0.70;0.70;;;;;;;;;;4944398;28;20210;-36
2022/09/30 15:11:24;;;;;;;3.30;1.10;;;;;;;;;;4948577;28;20221;-33
2022/09/30 15:14:16;;;;;;;0.93;0.80;;;;;;;;;;4953066;28;20241;-35
2022/09/30 15:16:47;;;;;;;1.40;0.80;;;;;;;;;;4950069;29;20211;-32
2022/09/30 15:19:18;;;;;;;1.50;0.87;;;;;;;;;;4949199;28;20213;-34
2022/09/30 15:21:47;;;;;;;2.07;0.80;;;;;;;;;;4959872;28;20229;-33
2022/09/30 15:24:14;;;;;;;1.37;1.00;;;;;;;;;;4952150;29;20217;-33
2022/09/30 15:26:45;;;;;;;2.40;1.10;;;;;;;;;;4946468;28;20216;-32
2022/09/30 15:29:13;;;;;;;1.37;1.23;;;;;;;;;;4943610;28;20207;-33
2022/09/30 15:31:43;;;;;;;0.80;0.80;;;;;;;;;;4957363;28;20207;-34
2022/09/30 15:34:14;;;;;;;2.23;0.87;;;;;;;;;;4959835;28;20200;-33
2022/09/30 15:36:41;;;;;;;1.20;1.10;;;;;;;;;;4956172;28;20205;-34
2022/09/30 15:39:18;;;;;;;2.63;1.37;;;;;;;;;;4954374;29;20218;-33
2022/09/30 15:41:47;;;;;;;1.27;1.17;;;;;;;;;;4952266;28;20246;-33
2022/09/30 15:44:17;;;;;;;1.63;1.10;;;;;;;;;;4964201;28;20216;-34
2022/09/30 15:47:01;;;;;;;1.43;1.10;;;;;;;;;;4948948;28;20221;-33
2022/09/30 15:49:33;;;;;;;1.73;0.93;;;;;;;;;;4956254;28;20324;-34
2022/09/30 15:52:16;;;;;;;1.23;1.03;;;;;;;;;;4966760;28;20206;-33
2022/09/30 15:54:43;;;;;;;0.93;0.90;;;;;;;;;;4958312;29;20205;-34
2022/09/30 15:57:38;;;;;;;4.10;1.13;;;;;;;;;;4957850;28;20210;-33
2022/09/30 16:00:31;;;;;;;2.73;1.30;;;;;;;;;;4962148;28;20255;-33
2022/09/30 16:03:06;;;;;;;1.20;0.90;;;;;;;;;;4954205;28;20289;-35
2022/09/30 16:05:34;;;;;;;1.10;1.00;;;;;;;;;;4963181;28;20284;-33
2022/09/30 16:08:01;;;;;;;0.90;0.90;;;;;;;;;;4961724;28;20217;-34
2022/09/30 16:10:29;;;;;;;0.80;0.80;;;;;;;;;;4951501;28;20259;-34
2022/09/30 16:12:56;;;;;;;1.20;1.00;;;;;;;;;;4961344;28;20207;-35
2022/09/30 16:15:24;;;;;;;2.03;0.90;;;;;;;;;;4961365;28;20209;-32
2022/09/30 16:17:52;;;;;;;1.00;0.90;;;;;;;;;;4948371;28;20215;-33
2022/09/30 16:20:23;;;;;;;1.10;1.10;;;;;;;;;;4968211;28;20273;-34
2022/09/30 16:22:53;;;;;;;2.03;1.20;;;;;;;;;;4971648;28;20571;-32
2022/09/30 16:25:23;;;;;;;0.93;0.90;;;;;;;;;;4957028;28;20214;-33
2022/09/30 16:27:54;;;;;;;1.93;1.23;;;;;;;;;;4954600;28;20215;-34
2022/09/30 16:30:22;;;;;;;0.83;0.83;;;;;;;;;;4963707;28;20228;-33
2022/09/30 16:32:52;;;;;;;1.40;1.00;;;;;;;;;;4952052;28;20197;-33
2022/09/30 16:35:20;;;;;;;1.53;1.20;;;;;;;;;;4961753;28;20201;-33
2022/09/30 16:37:49;;;;;;;1.30;1.20;;;;;;;;;;4957248;28;20216;-34
2022/09/30 16:40:19;;;;;;;1.57;1.37;;;;;;;;;;4948290;28;20309;-32
2022/09/30 16:42:47;;;;;;;0.93;0.93;;;;;;;;;;4957029;28;20239;-33
2022/09/30 16:45:15;;;;;;;1.10;1.00;;;;;;;;;;4960932;28;20205;-34
2022/09/30 16:47:42;;;;;;;1.60;1.27;;;;;;;;;;4947267;28;20217;-35
2022/09/30 16:50:28;;;;;;;1.30;1.20;;;;;;;;;;4953009;28;20234;-32
2022/09/30 16:52:59;;;;;;;4.57;1.20;;;;;;;;;;4950962;28;20201;-33
2022/09/30 16:55:26;;;;;;;2.87;1.50;;;;;;;;;;4951976;28;20292;-33
2022/09/30 16:57:56;;;;;;;2.27;1.33;;;;;;;;;;4963136;28;20219;-32
2022/09/30 17:00:23;;;;;;;4.17;1.30;;;;;;;;;;4960417;28;20225;-32
2022/09/30 17:02:50;;;;;;;2.67;1.43;;;;;;;;;;4951106;28;20462;-34
2022/09/30 17:05:20;;;;;;;3.43;1.20;;;;;;;;;;4960834;28;20233;-33
2022/09/30 17:07:48;;;;;;;2.90;1.30;;;;;;;;;;4956238;28;20217;-32
2022/09/30 17:10:19;;;;;;;1.50;1.40;;;;;;;;;;4946191;28;20317;-32
2022/09/30 17:12:46;;;;;;;2.20;2.10;;;;;;;;;;4950727;28;20284;-35
2022/09/30 17:15:14;;;;;;;2.40;2.30;;;;;;;;;;4953248;28;20279;-34
2022/09/30 17:17:41;;;;;;;2.83;2.13;;;;;;;;;;4945385;28;20265;-34
2022/09/30 17:20:09;;;;;;;2.30;2.10;;;;;;;;;;4950747;28;20229;-33
2022/09/30 17:22:36;;;;;;;1.53;1.43;;;;;;;;;;4956460;28;20347;-34
2022/09/30 17:25:03;;;;;;;2.17;1.93;;;;;;;;;;4951395;28;20285;-33
2022/09/30 17:27:32;;;;;;;1.33;1.20;;;;;;;;;;4942345;28;20213;-35
2022/09/30 17:30:00;;;;;;;2.70;1.53;;;;;;;;;;4949845;28;20225;-34
2022/09/30 17:32:27;;;;;;;2.63;1.47;;;;;;;;;;4942185;28;20245;-35
2022/09/30 17:34:54;;;;;;;4.37;1.90;;;;;;;;;;4955167;28;20211;-35
2022/09/30 17:37:21;;;;;;;1.53;1.43;;;;;;;;;;4951180;28;20212;-33
2022/09/30 17:39:48;;;;;;;1.47;1.37;;;;;;;;;;4946620;28;20236;-34
2022/09/30 17:45:02;;;;;;;1.57;1.47;;;;;;;;;;4953462;28;20207;-33
2022/09/30 17:47:29;;;;;;;1.73;1.63;;;;;;;;;;4947023;28;20299;-33
2022/09/30 17:49:58;;;;;;;2.63;2.40;;;;;;;;;;4954208;28;20239;-34
2022/09/30 17:52:26;;;;;;;4.40;2.73;;;;;;;;;;4953117;28;20198;-33
2022/09/30 17:54:53;;;;;;;2.33;1.90;;;;;;;;;;4951344;28;20205;-33
2022/09/30 17:57:23;;;;;;;2.50;2.00;;;;;;;;;;4939340;28;20209;-33
2022/09/30 17:59:51;;;;;;;2.00;1.90;;;;;;;;;;4947834;28;20229;-35
2022/09/30 18:02:20;;;;;;;1.73;1.60;;;;;;;;;;4952045;28;20217;-35
2022/09/30 18:04:48;;;;;;;2.20;2.00;;;;;;;;;;4947658;28;20205;-32
2022/09/30 18:07:15;;;;;;;4.73;2.13;;;;;;;;;;4961705;28;20216;-33
2022/09/30 18:09:42;;;;;;;2.83;1.93;;;;;;;;;;4953915;28;20237;-32
2022/09/30 18:12:11;;;;;;;3.77;1.73;;;;;;;;;;4958304;28;20200;-35
2022/09/30 18:14:46;;;;;;;1.70;1.60;;;;;;;;;;4954954;28;20215;-35
2022/09/30 18:17:13;;;;;;;1.60;1.50;;;;;;;;;;4949271;28;20293;-34
2022/09/30 18:19:42;;;;;;;1.23;1.23;;;;;;;;;;4954032;28;20228;-33
2022/09/30 18:22:11;;;;;;;1.40;1.30;;;;;;;;;;4958339;28;20342;-35
2022/09/30 18:27:24;;;;;;;1.93;1.77;;;;;;;;;;4946833;28;20271;-33
2022/09/30 18:29:52;;;;;;;3.47;1.80;;;;;;;;;;4947945;28;20257;-33
2022/09/30 18:32:19;;;;;;;2.47;1.77;;;;;;;;;;4945963;28;20500;-35
2022/09/30 18:34:47;;;;;;;1.80;1.70;;;;;;;;;;4945916;28;20211;-34
2022/09/30 18:37:15;;;;;;;5.67;3.50;;;;;;;;;;4953675;28;20299;-36
2022/09/30 18:39:42;;;;;;;63.30;27.87;;;;;;;;;;4946439;28;20273;-32
2022/09/30 18:42:09;;;;;;;10.77;6.23;;;;;;;;;;4948186;28;20248;-33
2022/09/30 18:44:37;;;;;;;22.93;11.10;;;;;;;;;;4951422;28;20205;-34
2022/09/30 18:47:05;;;;;;;3.67;2.53;;;;;;;;;;4942422;28;20214;-33
2022/09/30 18:49:33;;;;;;;5.30;3.60;;;;;;;;;;4952798;28;20228;-35
2022/09/30 18:52:03;;;;;;;7.43;4.10;;;;;;;;;;4952896;28;20225;-35
2022/09/30 18:54:32;;;;;;;9.13;3.70;;;;;;;;;;4952898;28;20580;-34
2022/09/30 18:56:59;;;;;;;4.57;2.87;;;;;;;;;;4945143;28;20205;-34
2022/09/30 18:59:27;;;;;;;3.83;2.37;;;;;;;;;;4954953;28;20201;-33
2022/09/30 19:01:54;;;;;;;6.87;1.87;;;;;;;;;;4954846;28;20248;-33
2022/09/30 19:04:22;;;;;;;2.10;1.87;;;;;;;;;;4951857;28;20296;-33
2022/09/30 19:06:49;;;;;;;2.10;1.90;;;;;;;;;;4956244;28;20288;-34
2022/09/30 19:09:17;;;;;;;4.47;2.30;;;;;;;;;;4951911;28;20205;-35
2022/09/30 19:11:46;;;;;;;4.23;2.60;;;;;;;;;;4945252;28;20208;-35
2022/09/30 19:14:14;;;;;;;2.87;2.23;;;;;;;;;;4953233;28;20209;-35
2022/09/30 19:16:42;;;;;;;2.97;2.67;;;;;;;;;;4945472;28;20264;-33
2022/09/30 19:19:11;;;;;;;3.70;2.90;;;;;;;;;;4945540;28;20257;-35
2022/09/30 19:21:40;;;;;;;3.43;2.63;;;;;;;;;;4951763;28;20213;-33
2022/09/30 19:24:08;;;;;;;2.83;2.37;;;;;;;;;;4955784;28;20213;-34
2022/09/30 19:26:37;;;;;;;2.87;2.50;;;;;;;;;;4951045;28;20491;-35
2022/09/30 19:29:06;;;;;;;2.60;2.20;;;;;;;;;;4950030;28;20212;-34
2022/09/30 19:31:35;;;;;;;2.87;2.37;;;;;;;;;;4952144;28;20214;-34
2022/09/30 19:34:02;;;;;;;3.10;2.50;;;;;;;;;;4950199;28;20205;-33
2022/09/30 19:36:30;;;;;;;3.90;2.70;;;;;;;;;;4952937;28;20721;-35
2022/09/30 19:39:00;;;;;;;2.70;2.50;;;;;;;;;;4956582;28;20220;-33
2022/09/30 19:41:30;;;;;;;3.30;2.73;;;;;;;;;;4947325;28;20316;-35
2022/09/30 19:44:00;;;;;;;2.53;2.33;;;;;;;;;;4951655;28;20218;-34
2022/09/30 19:46:28;;;;;;;3.73;2.53;;;;;;;;;;4951625;28;20221;-36
2022/09/30 19:48:56;;;;;;;2.70;2.50;;;;;;;;;;4950644;28;20201;-33
2022/09/30 19:51:23;;;;;;;3.50;3.20;;;;;;;;;;4968820;28;20224;-35
2022/09/30 19:53:50;;;;;;;4.57;2.60;;;;;;;;;;4958355;28;20209;-34
2022/09/30 19:56:18;;;;;;;3.03;2.73;;;;;;;;;;4945608;28;20220;-34
2022/09/30 19:58:47;;;;;;;3.60;2.90;;;;;;;;;;4944248;28;20205;-33
2022/09/30 20:01:20;;;;;;;4.20;2.77;;;;;;;;;;4947436;28;20221;-33
2022/09/30 20:03:47;;;;;;;3.23;2.67;;;;;;;;;;4942171;28;20273;-35
2022/09/30 20:06:17;;;;;;;2.87;2.57;;;;;;;;;;4949718;28;20269;-35
2022/09/30 20:08:45;;;;;;;3.60;2.37;;;;;;;;;;4951651;28;20240;-35
2022/09/30 20:11:14;;;;;;;3.63;2.83;;;;;;;;;;4953431;28;20292;-33
2022/09/30 20:13:41;;;;;;;5.43;3.23;;;;;;;;;;4963197;28;20202;-34
2022/09/30 20:16:08;;;;;;;3.40;3.10;;;;;;;;;;4948835;29;20252;-34
2022/09/30 20:18:38;;;;;;;3.70;3.30;;;;;;;;;;4957736;28;20268;-35
2022/09/30 20:21:09;;;;;;;3.73;3.20;;;;;;;;;;4957974;28;20233;-34
2022/09/30 20:23:37;;;;;;;4.70;3.17;;;;;;;;;;4954061;28;20223;-33
2022/09/30 20:26:05;;;;;;;2.90;2.60;;;;;;;;;;4944587;28;20236;-35
2022/09/30 20:28:33;;;;;;;3.00;2.50;;;;;;;;;;4949109;28;20209;-34
2022/09/30 20:31:05;;;;;;;5.20;2.50;;;;;;;;;;4962236;28;20311;-35
2022/09/30 20:33:32;;;;;;;3.10;2.60;;;;;;;;;;4951987;28;20234;-32
2022/09/30 20:36:01;;;;;;;3.07;2.77;;;;;;;;;;4965479;28;20208;-33
2022/09/30 20:38:29;;;;;;;7.53;3.40;;;;;;;;;;4962296;28;20252;-35
2022/09/30 20:40:56;;;;;;;3.37;3.07;;;;;;;;;;4947655;28;20290;-33
2022/09/30 20:43:28;;;;;;;4.17;2.67;;;;;;;;;;4949321;28;20221;-35
2022/09/30 20:46:00;;;;;;;3.10;2.80;;;;;;;;;;4952167;28;20208;-33
2022/09/30 20:48:27;;;;;;;5.67;2.90;;;;;;;;;;4945139;28;20232;-34
2022/09/30 20:50:54;;;;;;;2.30;2.10;;;;;;;;;;4954734;28;20268;-33
2022/09/30 20:53:23;;;;;;;2.37;2.17;;;;;;;;;;4955803;28;20212;-33
2022/09/30 20:55:51;;;;;;;2.93;2.50;;;;;;;;;;4950598;28;20206;-33
2022/09/30 20:58:18;;;;;;;2.03;1.93;;;;;;;;;;4942444;28;20212;-35
2022/09/30 21:00:45;;;;;;;4.00;2.23;;;;;;;;;;4951387;28;20228;-35
2022/09/30 21:03:14;;;;;;;2.77;2.27;;;;;;;;;;4938767;28;20320;-34
2022/09/30 21:05:41;;;;;;;2.53;2.20;;;;;;;;;;4956787;28;20209;-35
2022/09/30 21:08:08;;;;;;;4.30;2.80;;;;;;;;;;4955402;28;20213;-35
2022/09/30 21:10:37;;;;;;;3.00;2.60;;;;;;;;;;4945753;28;20321;-35
2022/09/30 21:13:09;;;;;;;3.23;2.70;;;;;;;;;;4952597;28;20229;-34
2022/09/30 21:15:36;;;;;;;3.23;2.90;;;;;;;;;;4944213;28;20584;-33
2022/09/30 21:18:03;;;;;;;3.27;2.47;;;;;;;;;;4938704;28;20203;-35
2022/09/30 21:20:30;;;;;;;4.83;2.67;;;;;;;;;;4952544;28;20229;-34
2022/09/30 21:22:58;;;;;;;3.97;3.20;;;;;;;;;;4948814;28;20229;-33
2022/09/30 21:25:25;;;;;;;3.90;3.10;;;;;;;;;;4941549;28;20209;-35
2022/09/30 21:27:53;;;;;;;4.60;3.47;;;;;;;;;;4947765;28;20261;-33
2022/09/30 21:30:20;;;;;;;4.00;2.80;;;;;;;;;;4950481;28;20264;-32
2022/09/30 21:32:48;;;;;;;3.30;2.73;;;;;;;;;;4942827;28;20202;-33
2022/09/30 21:35:15;;;;;;;3.47;3.17;;;;;;;;;;4955146;28;20210;-34
2022/09/30 21:37:43;;;;;;;4.20;3.03;;;;;;;;;;5209998;23;20232;-33
2022/09/30 21:40:11;;;;;;;2.77;2.57;;;;;;;;;;4952571;28;20256;-33
2022/09/30 21:42:38;;;;;;;2.90;2.70;;;;;;;;;;4958703;28;20232;-31
2022/09/30 21:45:07;;;;;;;2.73;2.53;;;;;;;;;;4947633;28;20213;-31
2022/09/30 21:47:35;;;;;;;2.63;2.43;;;;;;;;;;4943024;28;20202;-31
2022/09/30 21:50:02;;;;;;;5.63;3.10;;;;;;;;;;4954884;28;20221;-29
2022/09/30 21:52:29;;;;;;;3.23;2.93;;;;;;;;;;4958185;28;20205;-30
2022/09/30 21:54:56;;;;;;;3.40;3.10;;;;;;;;;;4948027;28;20201;-29
2022/09/30 21:57:23;;;;;;;5.97;2.60;;;;;;;;;;4955326;28;20211;-33
2022/09/30 21:59:52;;;;;;;4.97;3.60;;;;;;;;;;4968043;28;20235;-29
2022/09/30 22:02:20;;;;;;;4.97;3.70;;;;;;;;;;4943674;28;20198;-32
2022/09/30 22:04:47;;;;;;;5.57;4.20;;;;;;;;;;4948511;28;20277;-30
2022/09/30 22:07:15;;;;;;;5.10;3.83;;;;;;;;;;4953749;28;20212;-30
2022/09/30 22:09:42;;;;;;;3.97;3.50;;;;;;;;;;4959529;28;20225;-33
2022/09/30 22:12:09;;;;;;;6.00;4.30;;;;;;;;;;4944684;28;20213;-31
2022/09/30 22:14:37;;;;;;;7.87;4.23;;;;;;;;;;4955843;28;20201;-31
2022/09/30 22:17:08;;;;;;;4.50;4.10;;;;;;;;;;4946854;28;20216;-32
2022/09/30 22:19:37;;;;;;;7.37;4.77;;;;;;;;;;4951381;28;20229;-32
2022/09/30 22:22:05;;;;;;;4.93;3.67;;;;;;;;;;4945756;28;20217;-31
2022/09/30 22:24:35;;;;;;;5.33;4.33;;;;;;;;;;4952616;28;20233;-31
2022/09/30 22:27:04;;;;;;;5.57;4.47;;;;;;;;;;4950219;28;20210;-33
2022/09/30 22:29:31;;;;;;;4.73;3.47;;;;;;;;;;4950354;28;20242;-31
2022/09/30 22:32:00;;;;;;;5.43;4.00;;;;;;;;;;4944235;28;20233;-32
2022/09/30 22:39:58;;;;;;;6.17;3.60;;;;;;;;;;4947267;28;20224;-31
2022/09/30 22:42:25;;;;;;;5.03;3.43;;;;;;;;;;4954593;28;20200;-31
2022/09/30 22:44:53;;;;;;;6.40;4.17;;;;;;;;;;4950714;28;20251;-34
2022/09/30 22:47:20;;;;;;;3.50;3.20;;;;;;;;;;4953485;28;20216;-33
2022/09/30 22:49:47;;;;;;;4.83;4.20;;;;;;;;;;4943966;28;20235;-32
2022/09/30 22:52:16;;;;;;;4.07;3.40;;;;;;;;;;4957543;28;20226;-30
2022/09/30 22:54:43;;;;;;;4.10;3.70;;;;;;;;;;4956420;28;20212;-31
2022/09/30 22:57:11;;;;;;;3.93;3.63;;;;;;;;;;4958355;28;20224;-31
2022/09/30 22:59:40;;;;;;;4.70;3.80;;;;;;;;;;4951142;28;20297;-32
2022/09/30 23:02:07;;;;;;;4.87;3.60;;;;;;;;;;4942547;28;20317;-31
2022/09/30 23:04:35;;;;;;;5.37;3.63;;;;;;;;;;4951133;28;20431;-32
2022/09/30 23:07:04;;;;;;;3.03;2.67;;;;;;;;;;4955471;28;20201;-34
2022/09/30 23:09:32;;;;;;;5.27;3.40;;;;;;;;;;4948699;28;20221;-35
2022/09/30 23:11:59;;;;;;;5.03;3.60;;;;;;;;;;4947924;28;20220;-31
2022/09/30 23:14:27;;;;;;;3.90;3.23;;;;;;;;;;4955871;28;20244;-30
2022/09/30 23:16:54;;;;;;;8.23;3.90;;;;;;;;;;4958013;28;20213;-30
2022/09/30 23:19:22;;;;;;;4.67;4.00;;;;;;;;;;4946894;28;20202;-32
2022/09/30 23:21:49;;;;;;;4.40;3.73;;;;;;;;;;4946642;28;20201;-29
2022/09/30 23:24:16;;;;;;;3.90;3.07;;;;;;;;;;4957229;28;20229;-30
2022/09/30 23:26:44;;;;;;;4.17;3.53;;;;;;;;;;4945643;28;20211;-33
2022/09/30 23:29:12;;;;;;;3.17;2.87;;;;;;;;;;4962707;28;20209;-33
2022/09/30 23:31:39;;;;;;;4.43;3.20;;;;;;;;;;4954152;28;20209;-29
2022/09/30 23:34:06;;;;;;;4.90;3.30;;;;;;;;;;4940510;28;20213;-31
2022/09/30 23:36:35;;;;;;;5.17;3.30;;;;;;;;;;4953624;28;20208;-34
2022/09/30 23:39:04;;;;;;;3.60;3.20;;;;;;;;;;4959353;28;20213;-31
2022/09/30 23:41:32;;;;;;;4.63;3.10;;;;;;;;;;4948420;28;20283;-29
2022/09/30 23:44:01;;;;;;;3.40;3.10;;;;;;;;;;4940234;28;20286;-31
2022/09/30 23:46:29;;;;;;;4.83;3.60;;;;;;;;;;4952732;28;20218;-30
2022/09/30 23:48:56;;;;;;;3.73;3.33;;;;;;;;;;4948205;28;20201;-29
2022/09/30 23:51:23;;;;;;;4.30;3.37;;;;;;;;;;4954719;28;20225;-32
2022/09/30 23:53:50;;;;;;;4.50;3.33;;;;;;;;;;4958753;28;20216;-31
2022/09/30 23:56:18;;;;;;;4.10;3.03;;;;;;;;;;4956549;28;20209;-30
2022/09/30 23:58:46;;;;;;;4.43;3.30;;;;;;;;;;4952252;28;20204;-33
